createdAt,value
2022-12-09T00:00:44.568Z,16.67
2022-12-09T00:03:11.363Z,17.48
2022-12-09T00:05:41.067Z,17.00
2022-12-09T00:08:08.089Z,20.38
2022-12-09T00:10:35.163Z,17.00
2022-12-09T00:13:01.896Z,18.52
2022-12-09T00:15:28.463Z,20.25
2022-12-09T00:17:55.224Z,16.50
2022-12-09T00:20:21.876Z,17.85
2022-12-09T00:22:48.686Z,17.20
2022-12-09T00:25:15.255Z,15.45
2022-12-09T00:27:42.066Z,17.92
2022-12-09T00:30:09.143Z,15.02
2022-12-09T00:32:36.408Z,15.77
2022-12-09T00:35:04.370Z,21.10
2022-12-09T00:37:31.088Z,16.83
2022-12-09T00:39:58.379Z,18.67
2022-12-09T00:42:25.209Z,18.83
2022-12-09T00:44:52.117Z,16.45
2022-12-09T00:47:19.364Z,14.00
2022-12-09T00:49:45.972Z,14.80
2022-12-09T00:52:12.614Z,14.93
2022-12-09T00:54:39.257Z,15.82
2022-12-09T00:57:06.071Z,17.02
2022-12-09T00:59:33.606Z,25.13
2022-12-09T01:02:00.348Z,19.42
2022-12-09T01:04:27.111Z,15.30
2022-12-09T01:06:53.841Z,13.38
2022-12-09T01:09:20.429Z,25.00
2022-12-09T01:11:47.433Z,19.05
2022-12-09T01:14:14.364Z,16.55
2022-12-09T01:16:41.174Z,16.25
2022-12-09T01:19:10.692Z,17.48
2022-12-09T01:21:37.395Z,22.33
2022-12-09T01:24:10.978Z,12.98
2022-12-09T01:26:38.057Z,15.95
2022-12-09T01:29:05.277Z,17.67
2022-12-09T01:31:31.925Z,15.20
2022-12-09T01:33:58.898Z,18.73
2022-12-09T01:36:28.605Z,22.50
2022-12-09T01:38:58.269Z,17.02
2022-12-09T01:41:25.665Z,17.25
2022-12-09T01:44:07.562Z,18.88
2022-12-09T01:46:34.716Z,18.20
2022-12-09T01:49:02.062Z,14.85
2022-12-09T01:51:30.473Z,16.48
2022-12-09T01:53:57.712Z,14.15
2022-12-09T01:56:30.322Z,15.20
2022-12-09T01:59:00.602Z,12.45
2022-12-09T02:01:28.230Z,21.00
2022-12-09T02:03:55.566Z,14.48
2022-12-09T02:06:22.907Z,14.55
2022-12-09T02:08:50.964Z,18.25
2022-12-09T02:11:48.118Z,18.45
2022-12-09T02:14:23.768Z,17.45
2022-12-09T02:16:59.313Z,13.60
2022-12-09T02:19:43.790Z,18.33
2022-12-09T02:22:15.918Z,17.75
2022-12-09T02:25:04.438Z,25.60
2022-12-09T02:27:37.702Z,24.83
2022-12-09T02:30:09.978Z,15.25
2022-12-09T02:32:43.072Z,14.75
2022-12-09T02:35:31.723Z,21.38
2022-12-09T02:38:09.949Z,18.92
2022-12-09T02:40:52.619Z,22.38
2022-12-09T02:43:23.867Z,17.63
2022-12-09T02:45:54.797Z,17.42
2022-12-09T02:48:26.611Z,29.88
2022-12-09T02:50:56.882Z,19.23
2022-12-09T02:53:26.055Z,13.77
2022-12-09T02:55:55.753Z,21.00
2022-12-09T02:58:22.488Z,17.73
2022-12-09T03:00:50.717Z,16.15
2022-12-09T03:03:19.129Z,16.27
2022-12-09T03:05:49.652Z,18.10
2022-12-09T03:08:58.994Z,16.55
2022-12-09T03:11:27.869Z,17.02
2022-12-09T03:14:12.714Z,19.48
2022-12-09T03:16:46.893Z,16.50
2022-12-09T03:19:36.238Z,14.73
2022-12-09T03:22:07.927Z,22.55
2022-12-09T03:24:38.405Z,20.90
2022-12-09T03:27:09.697Z,18.90
2022-12-09T03:29:42.232Z,16.15
2022-12-09T03:32:12.037Z,16.35
2022-12-09T03:34:42.352Z,12.82
2022-12-09T03:37:10.896Z,24.48
2022-12-09T03:39:39.669Z,18.95
2022-12-09T03:42:15.278Z,22.33
2022-12-09T03:44:50.555Z,22.17
2022-12-09T03:47:17.305Z,18.90
2022-12-09T03:49:44.718Z,17.10
2022-12-09T03:52:36.662Z,21.08
2022-12-09T03:55:16.273Z,17.92
2022-12-09T03:57:45.345Z,17.13
2022-12-09T04:00:12.528Z,19.95
2022-12-09T04:02:40.632Z,18.60
2022-12-09T04:05:07.984Z,15.93
2022-12-09T04:07:34.834Z,13.18
2022-12-09T04:10:01.943Z,21.58
2022-12-09T04:12:29.714Z,17.48
2022-12-09T04:14:56.291Z,19.80
2022-12-09T04:17:22.957Z,34.92
2022-12-09T04:19:50.060Z,25.83
2022-12-09T04:22:17.007Z,18.33
2022-12-09T04:24:43.597Z,19.75
2022-12-09T04:27:13.323Z,19.23
2022-12-09T04:29:40.106Z,20.23
2022-12-09T04:32:06.914Z,20.90
2022-12-09T04:34:34.000Z,23.15
2022-12-09T04:37:01.003Z,17.75
2022-12-09T04:39:27.823Z,22.15
2022-12-09T04:41:54.383Z,15.65
2022-12-09T04:44:21.365Z,18.38
2022-12-09T04:46:49.146Z,15.10
2022-12-09T04:49:16.190Z,13.73
2022-12-09T04:51:42.911Z,18.35
2022-12-09T04:54:13.865Z,33.83
2022-12-09T04:56:41.753Z,20.95
2022-12-09T04:59:08.605Z,21.98
2022-12-09T05:01:35.666Z,17.55
2022-12-09T05:04:03.629Z,15.00
2022-12-09T05:06:31.257Z,16.55
2022-12-09T05:08:58.668Z,19.35
2022-12-09T05:11:25.973Z,18.70
2022-12-09T05:13:54.119Z,17.38
2022-12-09T05:16:22.507Z,13.20
2022-12-09T05:18:49.989Z,18.73
2022-12-09T05:21:19.435Z,20.33
2022-12-09T05:23:47.175Z,15.73
2022-12-09T05:26:16.597Z,20.15
2022-12-09T05:28:43.644Z,22.67
2022-12-09T05:31:14.952Z,15.00
2022-12-09T05:33:42.264Z,16.67
2022-12-09T05:36:11.098Z,18.55
2022-12-09T05:38:38.180Z,16.95
2022-12-09T05:41:05.437Z,16.80
2022-12-09T05:43:33.551Z,15.35
2022-12-09T05:46:01.879Z,11.93
2022-12-09T05:48:29.480Z,18.98
2022-12-09T05:51:27.196Z,13.40
2022-12-09T05:53:55.057Z,17.38
2022-12-09T05:56:24.335Z,17.33
2022-12-09T05:58:52.169Z,13.77
2022-12-09T06:01:19.555Z,13.57
2022-12-09T06:03:48.524Z,14.23
2022-12-09T06:06:18.222Z,13.98
2022-12-09T06:08:46.067Z,15.95
2022-12-09T06:11:16.403Z,17.83
2022-12-09T06:13:44.082Z,13.95
2022-12-09T06:16:11.395Z,18.05
2022-12-09T06:18:38.622Z,18.40
2022-12-09T06:21:10.038Z,19.65
2022-12-09T06:23:38.484Z,14.70
2022-12-09T06:26:05.644Z,15.40
2022-12-09T06:28:33.315Z,16.85
2022-12-09T06:31:00.775Z,13.27
2022-12-09T06:33:53.478Z,12.63
2022-12-09T06:36:14.476Z,15.23
2022-12-09T06:38:41.205Z,24.40
2022-12-09T06:41:12.482Z,12.98
2022-12-09T06:43:40.133Z,16.48
2022-12-09T06:46:23.332Z,18.00
2022-12-09T06:48:51.237Z,19.88
2022-12-09T06:51:18.451Z,16.08
2022-12-09T06:53:46.131Z,20.08
2022-12-09T06:56:14.323Z,21.40
2022-12-09T06:58:43.096Z,16.60
2022-12-09T07:01:15.954Z,12.40
2022-12-09T07:03:45.808Z,15.40
2022-12-09T07:06:34.825Z,23.80
2022-12-09T07:09:06.249Z,18.13
2022-12-09T07:11:33.598Z,23.52
2022-12-09T07:14:00.722Z,20.30
2022-12-09T07:16:28.449Z,14.30
2022-12-09T07:18:55.630Z,14.93
2022-12-09T07:21:24.021Z,18.30
2022-12-09T07:23:51.191Z,20.13
2022-12-09T07:26:19.305Z,16.88
2022-12-09T07:28:47.292Z,16.60
2022-12-09T07:31:28.438Z,19.38
2022-12-09T07:33:57.690Z,16.15
2022-12-09T07:36:26.640Z,15.65
2022-12-09T07:39:06.177Z,18.00
2022-12-09T07:41:33.286Z,16.75
2022-12-09T07:44:00.540Z,15.77
2022-12-09T07:46:27.614Z,18.10
2022-12-09T07:48:56.172Z,17.60
2022-12-09T07:51:24.445Z,17.23
2022-12-09T07:53:51.686Z,19.48
2022-12-09T07:56:19.528Z,20.02
2022-12-09T07:58:47.803Z,15.27
2022-12-09T08:01:17.574Z,19.77
2022-12-09T08:03:46.459Z,15.10
2022-12-09T08:06:19.543Z,21.17
2022-12-09T08:08:47.176Z,16.60
2022-12-09T08:11:20.684Z,18.13
2022-12-09T08:13:48.177Z,17.15
2022-12-09T08:16:17.643Z,23.95
2022-12-09T08:18:45.496Z,16.77
2022-12-09T08:21:34.446Z,23.63
2022-12-09T08:24:05.849Z,17.58
2022-12-09T08:26:34.076Z,19.83
2022-12-09T08:29:01.199Z,20.20
2022-12-09T08:31:28.631Z,20.33
2022-12-09T08:33:55.920Z,18.23
2022-12-09T08:36:26.338Z,21.58
2022-12-09T08:38:53.943Z,16.50
2022-12-09T08:41:35.858Z,17.50
2022-12-09T08:44:17.198Z,24.55
2022-12-09T08:46:47.358Z,17.63
2022-12-09T08:49:18.776Z,19.42
2022-12-09T08:51:47.514Z,19.55
2022-12-09T08:54:14.074Z,20.90
2022-12-09T08:56:44.781Z,20.17
2022-12-09T08:59:11.700Z,18.40
2022-12-09T09:01:38.334Z,22.77
2022-12-09T09:04:12.461Z,21.50
2022-12-09T09:06:41.480Z,20.75
2022-12-09T09:09:10.211Z,20.33
2022-12-09T09:11:37.747Z,23.17
2022-12-09T09:14:07.606Z,17.95
2022-12-09T09:16:35.490Z,19.08
2022-12-09T09:19:05.699Z,17.98
2022-12-09T09:21:33.114Z,18.63
2022-12-09T09:24:00.573Z,19.88
2022-12-09T09:26:31.090Z,24.02
2022-12-09T09:28:57.974Z,26.60
2022-12-09T09:31:25.798Z,18.88
2022-12-09T09:33:53.888Z,22.50
2022-12-09T09:36:23.992Z,21.85
2022-12-09T09:38:54.188Z,21.08
2022-12-09T09:41:42.697Z,22.27
2022-12-09T09:44:19.683Z,15.43
2022-12-09T09:46:48.967Z,22.17
2022-12-09T09:49:33.750Z,22.45
2022-12-09T09:52:06.072Z,25.90
2022-12-09T09:54:33.056Z,20.33
2022-12-09T09:57:22.913Z,23.35
2022-12-09T09:59:54.977Z,17.65
2022-12-09T10:02:33.305Z,15.20
2022-12-09T10:05:20.790Z,22.38
2022-12-09T10:07:53.530Z,28.13
2022-12-09T10:10:49.422Z,21.00
2022-12-09T10:13:41.838Z,24.02
2022-12-09T10:16:21.214Z,22.52
2022-12-09T10:19:14.812Z,19.80
2022-12-09T10:21:44.660Z,18.13
2022-12-09T10:24:39.128Z,25.00
2022-12-09T10:27:25.205Z,22.70
2022-12-09T10:29:58.350Z,22.35
2022-12-09T10:32:28.925Z,16.67
2022-12-09T10:34:56.205Z,14.02
2022-12-09T10:37:36.125Z,20.15
2022-12-09T10:40:19.375Z,21.75
2022-12-09T10:43:14.559Z,15.95
2022-12-09T10:46:16.674Z,18.60
2022-12-09T10:48:37.649Z,17.65
2022-12-09T10:51:10.534Z,20.88
2022-12-09T10:53:44.716Z,19.73
2022-12-09T10:56:18.819Z,21.88
2022-12-09T10:58:45.373Z,16.38
2022-12-09T11:01:14.031Z,13.95
2022-12-09T11:03:49.085Z,17.70
2022-12-09T11:06:28.549Z,13.90
2022-12-09T11:09:02.627Z,22.67
2022-12-09T11:12:00.146Z,16.00
2022-12-09T11:14:39.777Z,14.40
2022-12-09T11:17:55.876Z,19.88
2022-12-09T11:20:27.812Z,23.40
2022-12-09T11:23:00.872Z,22.63
2022-12-09T11:25:36.053Z,39.05
2022-12-09T11:28:17.302Z,20.05
2022-12-09T11:31:20.516Z,17.50
2022-12-09T11:33:50.153Z,16.50
2022-12-09T11:36:44.050Z,25.42
2022-12-09T11:39:23.365Z,19.40
2022-12-09T11:42:16.530Z,21.92
2022-12-09T11:45:17.486Z,22.05
2022-12-09T11:50:36.616Z,18.75
2022-12-09T11:53:12.358Z,19.67
2022-12-09T11:55:45.726Z,19.23
2022-12-09T11:58:19.080Z,14.77
2022-12-09T12:00:55.988Z,17.60
2022-12-09T12:03:46.245Z,18.48
2022-12-09T12:06:22.179Z,21.15
2022-12-09T12:08:55.175Z,14.63
2022-12-09T12:11:28.627Z,25.40
2022-12-09T12:14:04.542Z,17.35
2022-12-09T12:16:55.051Z,20.15
2022-12-09T12:19:28.429Z,16.30
2022-12-09T12:22:16.207Z,17.83
2022-12-09T12:25:05.400Z,18.20
2022-12-09T12:28:10.835Z,16.25
2022-12-09T12:31:04.097Z,13.43
2022-12-09T12:34:24.012Z,14.13
2022-12-09T12:36:51.486Z,22.00
2022-12-09T12:40:00.422Z,15.00
2022-12-09T12:43:05.392Z,10.77
2022-12-09T12:46:01.239Z,10.43
2022-12-09T12:48:46.354Z,14.75
2022-12-09T12:51:32.045Z,10.73
2022-12-09T12:54:04.348Z,15.88
2022-12-09T12:56:44.471Z,15.35
2022-12-09T12:59:40.218Z,20.58
2022-12-09T13:02:28.302Z,11.07
2022-12-09T13:05:03.399Z,13.90
2022-12-09T13:07:51.992Z,14.85
2022-12-09T13:10:30.522Z,16.85
2022-12-09T13:12:59.415Z,9.07
2022-12-09T13:15:45.355Z,7.18
2022-12-09T13:18:16.506Z,8.20
2022-12-09T13:20:50.330Z,8.85
2022-12-09T13:23:48.072Z,10.85
2022-12-09T13:26:43.122Z,15.00
2022-12-09T13:29:48.314Z,8.77
2022-12-09T13:32:33.672Z,9.48
2022-12-09T13:35:13.281Z,8.80
2022-12-09T13:37:42.550Z,9.20
2022-12-09T13:40:21.481Z,8.23
2022-12-09T13:42:58.458Z,8.95
2022-12-09T13:45:27.761Z,12.35
2022-12-09T13:47:56.811Z,12.93
2022-12-09T13:50:24.865Z,9.38
2022-12-09T13:52:54.669Z,14.80
2022-12-09T13:55:29.227Z,17.88
2022-12-09T13:58:14.342Z,14.63
2022-12-09T14:00:43.574Z,11.90
2022-12-09T14:03:31.353Z,14.90
2022-12-09T14:06:01.714Z,12.63
2022-12-09T14:08:37.921Z,15.00
2022-12-09T14:12:03.203Z,14.10
2022-12-09T14:14:29.759Z,10.90
2022-12-09T14:16:59.010Z,12.15
2022-12-09T14:19:25.481Z,10.20
2022-12-09T14:22:17.932Z,11.27
2022-12-09T14:24:46.120Z,15.02
2022-12-09T14:27:14.758Z,10.48
2022-12-09T14:29:44.373Z,13.20
2022-12-09T14:32:22.626Z,12.25
2022-12-09T14:35:02.202Z,12.60
2022-12-09T14:37:35.371Z,11.32
2022-12-09T14:40:35.874Z,13.30
2022-12-09T14:43:17.849Z,10.75
2022-12-09T14:45:54.466Z,11.70
2022-12-09T14:48:26.078Z,15.43
2022-12-09T14:51:16.941Z,11.90
2022-12-09T14:53:49.315Z,9.65
2022-12-09T14:56:21.381Z,9.82
2022-12-09T14:58:50.434Z,12.82
2022-12-09T15:01:18.265Z,15.93
2022-12-09T15:03:57.012Z,12.52
2022-12-09T15:06:26.788Z,16.20
2022-12-09T15:08:56.384Z,19.13
2022-12-09T15:11:31.378Z,19.13
2022-12-09T15:14:21.911Z,19.20
2022-12-09T15:16:50.968Z,17.75
2022-12-09T15:19:58.769Z,16.67
2022-12-09T15:22:28.927Z,23.67
2022-12-09T15:24:55.594Z,21.52
2022-12-09T15:27:23.829Z,26.15
2022-12-09T15:29:50.996Z,31.85
2022-12-09T15:32:20.119Z,26.90
2022-12-09T15:34:46.723Z,34.30
2022-12-09T15:37:14.077Z,38.92
2022-12-09T15:39:50.089Z,32.22
2022-12-09T15:42:25.794Z,31.83
2022-12-09T15:44:53.356Z,34.10
2022-12-09T15:47:28.122Z,33.80
2022-12-09T15:50:12.004Z,31.65
2022-12-09T15:52:55.375Z,36.70
2022-12-09T15:55:30.937Z,34.22
2022-12-09T15:58:00.721Z,34.00
2022-12-09T16:00:27.817Z,38.90
2022-12-09T16:02:55.672Z,40.30
2022-12-09T16:05:25.513Z,35.45
2022-12-09T16:07:59.334Z,38.25
2022-12-09T16:10:29.385Z,45.17
2022-12-09T16:13:14.038Z,45.70
2022-12-09T16:15:52.773Z,41.03
2022-12-09T16:18:51.984Z,45.58
2022-12-09T16:21:27.932Z,36.95
2022-12-09T16:24:04.659Z,40.47
2022-12-09T16:26:35.681Z,42.10
2022-12-09T16:29:07.333Z,41.85
2022-12-09T16:31:34.049Z,38.20
2022-12-09T16:34:00.589Z,43.58
2022-12-09T16:36:30.758Z,43.28
2022-12-09T16:39:09.447Z,51.67
2022-12-09T16:41:51.280Z,46.88
2022-12-09T16:44:22.426Z,43.65
2022-12-09T16:46:49.097Z,41.75
2022-12-09T16:49:15.666Z,38.10
2022-12-09T16:51:42.288Z,47.90
2022-12-09T16:54:19.645Z,42.03
2022-12-09T16:56:47.261Z,42.35
2022-12-09T16:59:13.750Z,41.22
2022-12-09T17:01:42.012Z,37.70
2022-12-09T17:04:34.757Z,48.08
2022-12-09T17:07:01.310Z,47.00
2022-12-09T17:09:27.867Z,55.85
2022-12-09T17:11:54.408Z,50.15
2022-12-09T17:14:20.902Z,47.08
2022-12-09T17:16:47.535Z,54.85
2022-12-09T17:19:14.080Z,50.88
2022-12-09T17:21:40.706Z,39.35
2022-12-09T17:24:08.059Z,55.85
2022-12-09T17:26:34.638Z,53.30
2022-12-09T17:29:02.030Z,47.13
2022-12-09T17:31:29.282Z,53.47
2022-12-09T17:33:56.989Z,37.90
2022-12-09T17:36:23.573Z,45.70
2022-12-09T17:38:50.123Z,39.97
2022-12-09T17:41:20.421Z,40.38
2022-12-09T17:43:47.222Z,37.13
2022-12-09T17:46:14.697Z,33.30
2022-12-09T17:48:41.837Z,38.47
2022-12-09T17:51:14.304Z,30.63
2022-12-09T17:53:42.156Z,40.00
2022-12-09T17:56:14.938Z,29.73
2022-12-09T17:58:42.125Z,31.90
2022-12-09T18:01:19.786Z,35.88
2022-12-09T18:03:55.892Z,39.45
2022-12-09T18:06:27.091Z,34.05
2022-12-09T18:08:53.922Z,40.47
2022-12-09T18:11:22.250Z,31.40
2022-12-09T18:13:50.250Z,32.97
2022-12-09T18:16:17.234Z,39.42
2022-12-09T18:18:44.531Z,38.22
2022-12-09T18:21:15.581Z,31.05
2022-12-09T18:23:43.090Z,36.15
2022-12-09T18:26:14.342Z,37.42
2022-12-09T18:28:41.585Z,32.05
2022-12-09T18:31:09.674Z,34.80
2022-12-09T18:33:37.428Z,27.65
2022-12-09T18:36:18.653Z,40.47
2022-12-09T18:38:46.018Z,35.50
2022-12-09T18:41:13.882Z,30.45
2022-12-09T18:43:43.590Z,29.30
2022-12-09T18:46:13.470Z,32.05
2022-12-09T18:48:40.569Z,33.33
2022-12-09T18:51:14.403Z,38.70
2022-12-09T18:53:40.966Z,34.40
2022-12-09T18:56:07.919Z,43.80
2022-12-09T18:58:57.880Z,32.08
2022-12-09T19:01:23.949Z,36.92
2022-12-09T19:03:54.007Z,33.17
2022-12-09T19:06:23.729Z,30.77
2022-12-09T19:08:53.680Z,34.72
2022-12-09T19:11:26.569Z,36.13
2022-12-09T19:13:54.144Z,32.03
2022-12-09T19:16:21.306Z,33.72
2022-12-09T19:18:48.494Z,32.60
2022-12-09T19:21:19.146Z,34.13
2022-12-09T19:23:46.954Z,29.77
2022-12-09T19:26:22.561Z,30.88
2022-12-09T19:29:00.872Z,34.88
2022-12-09T19:31:36.526Z,36.40
2022-12-09T19:34:10.506Z,39.83
2022-12-09T19:36:37.108Z,35.58
2022-12-09T19:39:06.462Z,36.80
2022-12-09T19:41:32.993Z,38.95
2022-12-09T19:44:00.984Z,38.05
2022-12-09T19:46:28.240Z,42.55
2022-12-09T19:48:55.695Z,38.85
2022-12-09T19:51:24.116Z,41.90
2022-12-09T19:53:56.770Z,36.33
2022-12-09T19:56:24.237Z,43.83
2022-12-09T19:58:52.388Z,41.58
2022-12-09T20:01:20.695Z,38.20
2022-12-09T20:03:49.589Z,35.78
2022-12-09T20:06:18.805Z,34.78
2022-12-09T20:08:46.349Z,37.47
2022-12-09T20:11:15.725Z,38.30
2022-12-09T20:13:43.097Z,39.22
2022-12-09T20:16:12.486Z,40.58
2022-12-09T20:18:39.491Z,41.70
2022-12-09T20:21:09.050Z,36.22
2022-12-09T20:23:37.420Z,39.72
2022-12-09T20:26:09.417Z,36.28
2022-12-09T20:28:37.592Z,41.42
2022-12-09T20:31:06.660Z,37.80
2022-12-09T20:33:33.906Z,32.40
2022-12-09T20:36:08.110Z,41.38
2022-12-09T20:38:35.785Z,40.47
2022-12-09T20:41:08.867Z,26.13
2022-12-09T20:43:39.494Z,37.50
2022-12-09T20:46:10.293Z,34.40
2022-12-09T20:48:38.286Z,36.05
2022-12-09T20:51:10.236Z,35.53
2022-12-09T20:53:37.041Z,31.70
2022-12-09T20:56:04.197Z,32.17
2022-12-09T20:58:30.827Z,33.45
2022-12-09T21:01:05.214Z,35.90
2022-12-09T21:03:31.802Z,29.17
2022-12-09T21:05:58.479Z,37.33
2022-12-09T21:08:31.099Z,37.38
2022-12-09T21:11:07.066Z,28.88
2022-12-09T21:13:41.967Z,30.10
2022-12-09T21:16:12.298Z,35.80
2022-12-09T21:18:39.126Z,34.20
2022-12-09T21:21:06.118Z,33.70
2022-12-09T21:23:35.253Z,36.75
2022-12-09T21:26:06.814Z,30.48
2022-12-09T21:28:34.548Z,34.13
2022-12-09T21:31:09.519Z,31.42
2022-12-09T21:33:38.379Z,39.88
2022-12-09T21:36:06.516Z,34.50
2022-12-09T21:38:35.212Z,35.33
2022-12-09T21:41:03.845Z,36.55
2022-12-09T21:43:32.208Z,29.95
2022-12-09T21:46:02.337Z,31.30
2022-12-09T21:48:29.056Z,40.35
2022-12-09T21:50:56.505Z,37.70
2022-12-09T21:53:23.074Z,28.38
2022-12-09T21:55:49.970Z,36.42
2022-12-09T21:58:16.566Z,33.38
2022-12-09T22:00:43.271Z,29.80
2022-12-09T22:03:09.855Z,30.95
2022-12-09T22:05:36.326Z,39.17
2022-12-09T22:08:03.820Z,38.42
2022-12-09T22:10:30.502Z,34.58
2022-12-09T22:12:57.085Z,36.15
2022-12-09T22:15:23.650Z,34.97
2022-12-09T22:17:50.303Z,35.88
2022-12-09T22:23:03.529Z,28.92
2022-12-09T22:25:30.213Z,31.70
2022-12-09T22:27:57.205Z,39.20
2022-12-09T22:30:23.804Z,30.25
2022-12-09T22:32:51.034Z,30.88
2022-12-09T22:35:17.735Z,35.60
2022-12-09T22:37:44.904Z,32.50
2022-12-09T22:40:11.868Z,35.08
2022-12-09T22:42:38.475Z,35.88
2022-12-09T22:45:06.338Z,29.38
2022-12-09T22:47:32.926Z,35.65
2022-12-09T22:49:59.671Z,31.27
2022-12-09T22:52:26.238Z,32.22
2022-12-09T22:54:52.714Z,33.30
2022-12-09T22:57:19.330Z,39.13
2022-12-09T22:59:45.834Z,33.25
2022-12-09T23:02:12.408Z,32.95
2022-12-09T23:04:38.969Z,26.88
2022-12-09T23:07:05.515Z,34.92
2022-12-09T23:09:32.168Z,35.03
2022-12-09T23:11:58.724Z,39.63
2022-12-09T23:14:25.327Z,34.75
2022-12-09T23:16:51.912Z,29.42
2022-12-09T23:19:18.497Z,38.65
2022-12-09T23:21:45.116Z,35.22
2022-12-09T23:24:16.439Z,36.72
2022-12-09T23:26:45.114Z,37.58
2022-12-09T23:29:15.837Z,31.35
2022-12-09T23:31:43.011Z,27.30
2022-12-09T23:34:12.958Z,43.25
2022-12-09T23:36:41.905Z,27.38
2022-12-09T23:39:14.589Z,37.15
2022-12-09T23:41:42.788Z,24.98
2022-12-09T23:44:11.315Z,33.55
2022-12-09T23:46:38.271Z,32.00
2022-12-09T23:49:06.425Z,26.38
2022-12-09T23:51:34.536Z,28.75
2022-12-09T23:54:03.885Z,30.83
2022-12-09T23:56:34.351Z,37.60
2022-12-09T23:59:03.848Z,35.35
